ADDS TAF Data INFO
IDs: Format: Raw Decoded Include METARs

Data at: 1534 UTC 18 Nov 2017

KGCN 181454Z 07011G14KT 10SM CLR M01/M12 A3034 RMK AO2 SLP261 T10061122 53011

KGCN 181133Z 1812/1912 06010KT P6SM SKC